Terminal Aerodrome Forecast
Issued by NWS Springfield, MO

Home | Current Version | Previous Version | Text Only | Print | Product List | Glossary On
Versions: 1 2 3 4 5 6 7 8 9 10 11 12 13 14 15 16 17 18 19 20
000
FTUS43 KSGF 261900 AAA
TAFSGF
TAF AMD
KSGF 261953Z 2620/2718 05012KT P6SM OVC015
     FM262200 07012KT P6SM SCT030 OVC250
     FM270300 10012KT P6SM OVC250=

USA.gov is the U.S. government's official web portal to all federal, state and local government web resources and services.